Time;durP1;ratioP1;P1;durP2;ratioP2;P2;SDS_P1;SDS_P2;PMS_P1;PMS_P2;Temp;Humidity;BMP_temperature;BMP_pressure;BME280_temperature;BME280_humidity;BME280_pressure;Samples;Min_cycle;Max_cycle;Signal;HPM_P1;HPM_P2
2021/11/20 00:02:23;;;;;;;4.70;1.53;;;11.90;99.90;;;;;;5046251;28;20335;-65
2021/11/20 00:04:50;;;;;;;5.73;1.90;;;11.90;99.90;;;;;;5041646;28;20203;-68
2021/11/20 00:07:18;;;;;;;3.03;1.70;;;11.90;99.90;;;;;;5034578;28;20305;-65
2021/11/20 00:09:46;;;;;;;1.97;1.37;;;11.90;99.90;;;;;;5046940;28;20225;-66
2021/11/20 00:12:18;;;;;;;5.53;2.00;;;12.00;99.90;;;;;;5038800;28;20273;-66
2021/11/20 00:14:47;;;;;;;2.47;1.70;;;11.90;99.90;;;;;;5036645;28;20294;-67
2021/11/20 00:17:14;;;;;;;6.00;1.83;;;12.00;99.90;;;;;;5038730;28;20301;-66
2021/11/20 00:19:42;;;;;;;3.10;1.40;;;12.00;99.90;;;;;;5030775;28;20213;-65
2021/11/20 00:22:12;;;;;;;3.57;1.30;;;12.00;99.90;;;;;;5034022;28;20289;-67
2021/11/20 00:24:42;;;;;;;4.70;1.30;;;12.00;99.90;;;;;;5033170;28;20692;-68
2021/11/20 00:27:16;;;;;;;4.90;1.80;;;12.00;99.90;;;;;;5038244;28;20685;-66
2021/11/20 00:29:45;;;;;;;4.53;1.50;;;12.10;99.90;;;;;;5039075;28;20225;-66
2021/11/20 00:32:21;;;;;;;5.07;1.33;;;12.00;99.90;;;;;;5045363;28;20221;-66
2021/11/20 00:34:49;;;;;;;4.87;2.13;;;12.10;99.90;;;;;;5038459;28;20205;-66
2021/11/20 00:37:16;;;;;;;6.20;1.57;;;12.10;99.90;;;;;;5045024;28;20301;-66
2021/11/20 00:39:43;;;;;;;2.73;1.37;;;12.10;99.90;;;;;;5035266;28;20293;-66
2021/11/20 00:42:11;;;;;;;5.07;1.40;;;12.10;99.90;;;;;;5030835;28;20293;-66
2021/11/20 00:44:39;;;;;;;5.83;1.60;;;12.10;99.90;;;;;;5033883;28;20367;-66
2021/11/20 00:47:07;;;;;;;1.90;1.00;;;12.10;99.90;;;;;;5030701;28;20253;-67
2021/11/20 00:49:36;;;;;;;2.90;1.33;;;12.10;99.90;;;;;;5042458;28;20234;-66
2021/11/20 00:52:04;;;;;;;4.83;1.57;;;12.10;99.90;;;;;;5037833;28;20281;-66
2021/11/20 00:54:31;;;;;;;2.90;1.30;;;12.10;99.90;;;;;;5035645;28;20238;-66
2021/11/20 00:56:58;;;;;;;3.13;1.50;;;12.10;99.90;;;;;;5034705;28;20265;-66
2021/11/20 00:59:25;;;;;;;3.50;1.43;;;12.10;99.90;;;;;;5049479;28;20237;-66
2021/11/20 01:01:55;;;;;;;2.63;1.43;;;12.10;99.90;;;;;;5040236;28;20304;-65
2021/11/20 01:04:24;;;;;;;4.57;1.97;;;12.10;99.90;;;;;;5045461;28;20734;-66
2021/11/20 01:06:53;;;;;;;3.13;1.30;;;12.10;99.90;;;;;;5032618;28;20666;-65
2021/11/20 01:09:23;;;;;;;2.73;1.30;;;12.10;99.90;;;;;;5033439;28;20706;-66
2021/11/20 01:11:53;;;;;;;5.27;1.70;;;12.10;99.90;;;;;;5048640;28;20325;-66
2021/11/20 01:14:22;;;;;;;4.00;1.40;;;12.10;99.90;;;;;;5044276;28;20218;-66
2021/11/20 01:16:50;;;;;;;4.07;1.33;;;12.10;99.90;;;;;;5047451;28;20706;-66
2021/11/20 01:19:18;;;;;;;4.60;1.30;;;12.10;99.90;;;;;;5040018;28;20285;-66
2021/11/20 01:21:46;;;;;;;2.20;1.50;;;12.10;99.90;;;;;;5048870;28;20293;-66
2021/11/20 01:24:14;;;;;;;2.03;1.27;;;12.10;99.90;;;;;;5049428;28;20669;-66
2021/11/20 01:26:41;;;;;;;4.70;1.50;;;12.10;99.90;;;;;;5045718;28;20296;-66
2021/11/20 01:29:10;;;;;;;3.73;1.80;;;12.20;99.90;;;;;;5048520;28;20225;-67
2021/11/20 01:31:40;;;;;;;4.47;1.40;;;12.20;99.90;;;;;;5049096;28;20302;-65
2021/11/20 01:34:08;;;;;;;4.10;1.30;;;12.20;99.90;;;;;;5049356;28;20205;-64
2021/11/20 01:36:38;;;;;;;3.27;1.40;;;12.20;99.90;;;;;;5049643;28;20268;-66
2021/11/20 01:39:08;;;;;;;2.17;1.13;;;12.20;99.90;;;;;;5047103;28;20293;-66
2021/11/20 01:41:38;;;;;;;2.43;1.20;;;12.20;99.90;;;;;;5044438;28;20714;-65
2021/11/20 01:44:12;;;;;;;3.07;1.30;;;12.20;99.90;;;;;;5045121;28;20237;-66
2021/11/20 01:46:42;;;;;;;2.97;1.43;;;12.20;99.90;;;;;;5045826;28;20214;-66
2021/11/20 01:49:14;;;;;;;3.40;1.40;;;12.20;99.90;;;;;;5046033;28;20305;-65
2021/11/20 01:51:43;;;;;;;2.57;1.40;;;12.20;99.90;;;;;;5034188;28;20206;-64
2021/11/20 01:54:29;;;;;;;3.30;1.50;;;12.20;99.90;;;;;;5037257;28;20630;-66
2021/11/20 01:57:03;;;;;;;6.10;1.63;;;12.20;99.90;;;;;;5034749;28;20291;-66
2021/11/20 01:59:37;;;;;;;2.50;1.23;;;12.20;99.90;;;;;;5036118;28;20194;-66
2021/11/20 02:02:13;;;;;;;5.03;1.33;;;12.20;99.90;;;;;;5035494;28;20236;-66
2021/11/20 02:04:47;;;;;;;3.37;1.17;;;12.20;99.90;;;;;;5036345;28;20659;-65
2021/11/20 02:07:28;;;;;;;4.73;1.50;;;12.20;99.90;;;;;;5038825;28;20827;-65
2021/11/20 02:10:01;;;;;;;5.33;1.30;;;12.20;99.90;;;;;;5041895;28;20249;-65
2021/11/20 02:12:32;;;;;;;3.60;1.77;;;12.20;99.90;;;;;;5038497;28;20252;-65
2021/11/20 02:15:00;;;;;;;4.17;1.73;;;12.20;99.90;;;;;;5051823;28;20202;-67
2021/11/20 02:17:33;;;;;;;3.70;1.53;;;12.20;99.90;;;;;;5047382;28;20639;-65
2021/11/20 02:20:06;;;;;;;2.17;1.27;;;12.20;99.90;;;;;;5037114;28;20205;-67
2021/11/20 02:22:36;;;;;;;4.80;1.50;;;12.20;99.90;;;;;;5038218;28;20638;-65
2021/11/20 02:25:03;;;;;;;6.37;1.57;;;12.20;99.90;;;;;;5035303;28;20211;-66
2021/11/20 02:27:34;;;;;;;3.33;1.60;;;12.20;99.90;;;;;;5046846;28;20293;-66
2021/11/20 02:30:22;;;;;;;6.90;2.03;;;12.20;99.90;;;;;;5035842;28;20297;-65
2021/11/20 02:32:52;;;;;;;4.93;1.50;;;12.20;99.90;;;;;;5044297;28;20245;-65
2021/11/20 02:35:24;;;;;;;1.87;1.30;;;12.20;99.90;;;;;;5042956;28;20379;-65
2021/11/20 02:37:51;;;;;;;2.97;1.30;;;12.20;99.90;;;;;;5035365;28;20289;-65
2021/11/20 02:40:18;;;;;;;5.33;1.63;;;12.10;99.90;;;;;;5038080;28;20281;-66
2021/11/20 02:42:46;;;;;;;3.70;1.40;;;12.10;99.90;;;;;;5045161;28;20614;-68
2021/11/20 02:45:19;;;;;;;4.60;1.60;;;12.10;99.90;;;;;;5041615;28;20206;-66
2021/11/20 02:47:46;;;;;;;4.47;1.40;;;12.20;99.90;;;;;;5044376;28;20207;-66
2021/11/20 02:50:14;;;;;;;3.93;1.40;;;12.10;99.90;;;;;;5040480;28;20790;-66
2021/11/20 02:52:41;;;;;;;3.60;1.50;;;12.10;99.90;;;;;;5041406;28;20293;-66
2021/11/20 02:55:09;;;;;;;3.30;1.47;;;12.10;99.90;;;;;;5047291;28;20294;-66
2021/11/20 02:57:38;;;;;;;5.37;1.40;;;12.10;99.90;;;;;;5047899;28;20217;-67
2021/11/20 03:00:08;;;;;;;5.07;1.70;;;12.00;99.90;;;;;;5035689;28;20286;-67
2021/11/20 03:02:36;;;;;;;2.40;1.47;;;12.00;99.90;;;;;;5052374;28;20237;-67
2021/11/20 03:05:05;;;;;;;4.13;1.17;;;12.00;99.90;;;;;;5045764;28;20232;-65
2021/11/20 03:07:32;;;;;;;4.93;2.07;;;12.00;99.90;;;;;;5040166;28;20209;-66
2021/11/20 03:09:58;;;;;;;5.07;1.30;;;12.00;99.90;;;;;;5042059;28;20261;-66
2021/11/20 03:12:26;;;;;;;2.23;1.20;;;12.00;99.90;;;;;;5039524;28;20313;-66
2021/11/20 03:14:53;;;;;;;4.37;1.60;;;12.00;99.90;;;;;;5048692;28;20607;-67
2021/11/20 03:17:20;;;;;;;2.93;1.60;;;12.00;99.90;;;;;;5035528;28;20234;-66
2021/11/20 03:19:50;;;;;;;4.83;1.57;;;11.90;99.90;;;;;;5047623;28;20293;-67
2021/11/20 03:22:20;;;;;;;5.87;2.00;;;12.00;99.90;;;;;;5048262;28;20271;-67
2021/11/20 03:24:49;;;;;;;3.90;1.17;;;11.90;99.90;;;;;;5033886;28;20794;-65
2021/11/20 03:27:16;;;;;;;2.27;1.47;;;11.90;99.90;;;;;;5041235;28;20233;-66
2021/11/20 03:29:43;;;;;;;3.40;1.43;;;11.90;99.90;;;;;;5040902;28;20298;-65
2021/11/20 03:32:11;;;;;;;2.70;1.13;;;11.90;99.90;;;;;;5047477;28;20206;-67
2021/11/20 03:34:39;;;;;;;4.53;1.40;;;11.90;99.90;;;;;;5041033;28;20282;-66
2021/11/20 03:37:09;;;;;;;3.90;1.50;;;11.90;99.90;;;;;;5045682;28;20624;-66
2021/11/20 03:39:37;;;;;;;3.37;1.27;;;11.80;99.90;;;;;;5042699;28;20317;-66
2021/11/20 03:42:06;;;;;;;3.57;1.60;;;11.80;99.90;;;;;;5037577;28;20325;-67
2021/11/20 03:44:33;;;;;;;4.33;1.63;;;11.80;99.90;;;;;;5039339;28;20202;-66
2021/11/20 03:47:00;;;;;;;3.73;1.60;;;11.70;99.90;;;;;;5037462;28;20293;-66
2021/11/20 03:49:27;;;;;;;4.20;1.57;;;11.70;99.90;;;;;;5034349;28;20207;-67
2021/11/20 03:51:54;;;;;;;3.00;1.20;;;11.70;99.90;;;;;;5034135;28;20316;-66
2021/11/20 03:54:22;;;;;;;3.13;1.43;;;11.70;99.90;;;;;;5034206;28;20226;-65
2021/11/20 03:56:49;;;;;;;3.87;1.40;;;11.70;99.90;;;;;;5041368;28;20258;-66
2021/11/20 03:59:17;;;;;;;4.23;1.10;;;11.60;99.90;;;;;;5031785;28;20242;-66
2021/11/20 04:01:45;;;;;;;3.10;1.30;;;11.60;99.90;;;;;;5033992;28;20341;-65
2021/11/20 04:04:12;;;;;;;4.73;1.27;;;11.60;99.90;;;;;;5050825;28;20983;-66
2021/11/20 04:06:39;;;;;;;4.30;1.50;;;11.50;99.90;;;;;;5036362;28;20317;-66
2021/11/20 04:09:06;;;;;;;4.70;1.10;;;11.50;99.90;;;;;;5045159;28;20255;-66
2021/11/20 04:11:35;;;;;;;3.57;1.10;;;11.40;99.90;;;;;;5039415;28;20257;-66
2021/11/20 04:14:03;;;;;;;4.13;1.37;;;11.40;99.90;;;;;;5040006;28;20259;-65
2021/11/20 04:16:31;;;;;;;3.43;1.37;;;11.40;99.90;;;;;;5049257;28;20206;-65
2021/11/20 04:18:58;;;;;;;4.70;1.10;;;11.30;99.90;;;;;;5044926;28;20290;-65
2021/11/20 04:21:26;;;;;;;3.87;1.53;;;11.30;99.90;;;;;;5042176;28;20268;-64
2021/11/20 04:23:54;;;;;;;5.50;1.13;;;11.30;99.90;;;;;;5042310;28;20293;-66
2021/11/20 04:26:23;;;;;;;2.97;1.33;;;11.20;99.90;;;;;;5041390;28;20316;-64
2021/11/20 04:28:51;;;;;;;2.37;0.93;;;11.20;99.90;;;;;;5043243;28;20627;-64
2021/11/20 04:31:19;;;;;;;4.73;1.70;;;11.20;99.90;;;;;;5047607;28;20313;-65
2021/11/20 04:33:47;;;;;;;5.17;1.27;;;11.20;99.90;;;;;;5031603;28;20202;-66
2021/11/20 04:36:15;;;;;;;5.43;1.40;;;11.10;99.90;;;;;;5041746;28;20210;-65
2021/11/20 04:38:42;;;;;;;4.63;1.27;;;11.10;99.90;;;;;;5036329;28;20238;-66
2021/11/20 04:41:09;;;;;;;4.27;1.30;;;11.10;99.90;;;;;;5040400;28;20252;-65
2021/11/20 04:43:37;;;;;;;3.40;1.13;;;11.10;99.90;;;;;;5034173;28;20293;-65
2021/11/20 04:46:05;;;;;;;7.30;1.77;;;11.10;99.90;;;;;;5036583;28;20249;-66
2021/11/20 04:48:32;;;;;;;7.47;1.87;;;11.00;99.90;;;;;;5042425;28;20280;-66
2021/11/20 04:51:00;;;;;;;6.43;1.60;;;11.10;99.90;;;;;;5051014;28;20257;-65
2021/11/20 04:53:29;;;;;;;4.60;1.30;;;11.00;99.90;;;;;;5046799;28;20202;-65
2021/11/20 04:55:58;;;;;;;3.77;1.30;;;11.00;99.90;;;;;;5039495;28;20242;-66
2021/11/20 04:58:25;;;;;;;5.30;1.13;;;11.00;99.90;;;;;;5039281;28;20322;-65
2021/11/20 05:00:54;;;;;;;4.97;1.10;;;11.00;99.90;;;;;;5038534;28;20225;-66
2021/11/20 05:03:23;;;;;;;3.77;1.23;;;11.00;99.90;;;;;;5045611;28;20210;-65
2021/11/20 05:05:53;;;;;;;4.23;1.23;;;11.00;99.90;;;;;;5034932;28;20271;-67
2021/11/20 05:08:22;;;;;;;4.13;1.30;;;10.90;99.90;;;;;;5031242;28;20214;-66
2021/11/20 05:10:50;;;;;;;3.30;1.10;;;10.90;99.90;;;;;;5038696;28;20214;-66
2021/11/20 05:13:17;;;;;;;5.03;1.30;;;10.90;99.90;;;;;;5035579;28;20570;-67
2021/11/20 05:15:47;;;;;;;7.27;1.67;;;10.90;99.90;;;;;;5036301;28;20515;-65
2021/11/20 05:18:14;;;;;;;3.90;1.20;;;10.90;99.90;;;;;;5037964;28;20272;-66
2021/11/20 05:20:43;;;;;;;7.47;1.90;;;10.90;99.90;;;;;;5043620;28;20633;-66
2021/11/20 05:23:11;;;;;;;7.27;1.40;;;10.90;99.90;;;;;;5035006;28;20257;-66
2021/11/20 05:25:38;;;;;;;5.53;1.77;;;10.80;99.90;;;;;;5034046;28;20687;-66
2021/11/20 05:28:05;;;;;;;4.80;1.30;;;10.80;99.90;;;;;;5049200;28;20348;-66
2021/11/20 05:30:36;;;;;;;3.23;1.50;;;10.80;99.90;;;;;;5042766;28;20222;-65
2021/11/20 05:33:06;;;;;;;6.73;1.23;;;10.80;99.90;;;;;;5035624;28;20775;-65
2021/11/20 05:35:34;;;;;;;4.30;1.43;;;10.70;99.90;;;;;;5041667;28;20304;-66
2021/11/20 05:38:02;;;;;;;4.70;1.47;;;10.70;99.90;;;;;;5030841;28;20216;-66
2021/11/20 05:40:30;;;;;;;7.90;1.47;;;10.70;99.90;;;;;;5039394;28;20706;-66
2021/11/20 05:43:00;;;;;;;8.83;1.53;;;10.70;99.90;;;;;;5039686;28;20233;-66
2021/11/20 05:45:29;;;;;;;8.87;2.00;;;10.70;99.90;;;;;;5037663;28;20297;-67
2021/11/20 05:47:57;;;;;;;8.27;2.17;;;10.70;99.90;;;;;;5049318;28;20280;-66
2021/11/20 05:50:25;;;;;;;5.03;1.77;;;10.70;99.90;;;;;;5049937;28;20288;-66
2021/11/20 05:52:53;;;;;;;5.07;1.53;;;10.70;99.90;;;;;;5048598;28;20212;-66
2021/11/20 05:55:23;;;;;;;7.40;1.60;;;10.60;99.90;;;;;;5047395;28;20234;-65
2021/11/20 05:57:50;;;;;;;5.57;1.53;;;10.60;99.90;;;;;;5046226;28;20237;-65
2021/11/20 06:00:20;;;;;;;7.30;1.50;;;10.60;99.90;;;;;;5045007;28;20289;-65
2021/11/20 06:02:47;;;;;;;4.43;1.33;;;10.60;99.90;;;;;;5053050;28;20209;-66
2021/11/20 06:05:15;;;;;;;8.63;1.80;;;10.60;99.90;;;;;;5036364;28;20238;-66
2021/11/20 06:07:42;;;;;;;7.70;1.40;;;10.60;99.90;;;;;;5037237;28;20241;-65
2021/11/20 06:10:09;;;;;;;6.47;2.13;;;10.60;99.90;;;;;;5037034;28;20206;-66
2021/11/20 06:12:38;;;;;;;4.50;1.23;;;10.60;99.90;;;;;;5053724;28;20295;-66
2021/11/20 06:15:07;;;;;;;9.67;1.70;;;10.50;99.90;;;;;;5047266;28;20202;-66
2021/11/20 06:17:33;;;;;;;6.37;1.70;;;10.50;99.90;;;;;;5043703;28;20206;-66
2021/11/20 06:20:00;;;;;;;6.37;1.50;;;10.50;99.90;;;;;;5041470;28;20210;-66
2021/11/20 06:22:28;;;;;;;6.63;1.63;;;10.50;99.90;;;;;;5047274;28;20255;-67
2021/11/20 06:24:57;;;;;;;4.87;1.67;;;10.50;99.90;;;;;;5038467;28;20215;-67
2021/11/20 06:27:24;;;;;;;6.17;1.60;;;10.50;99.90;;;;;;5036372;28;20627;-66
2021/11/20 06:29:53;;;;;;;3.07;1.40;;;10.50;99.90;;;;;;5043958;28;20252;-66
2021/11/20 06:32:20;;;;;;;5.77;1.60;;;10.50;99.90;;;;;;5051562;28;20257;-68
2021/11/20 06:34:47;;;;;;;5.73;1.43;;;10.50;99.90;;;;;;5056244;28;20280;-68
2021/11/20 06:37:14;;;;;;;4.70;1.70;;;10.50;99.90;;;;;;5055795;28;20198;-67
2021/11/20 06:39:41;;;;;;;7.40;1.70;;;10.50;99.90;;;;;;5033956;28;20765;-66
2021/11/20 06:42:08;;;;;;;6.73;1.57;;;10.50;99.90;;;;;;5048700;28;20225;-69
2021/11/20 06:44:36;;;;;;;8.13;1.93;;;10.50;99.90;;;;;;5045869;28;20313;-68
2021/11/20 06:47:05;;;;;;;6.33;1.97;;;10.60;99.90;;;;;;5044806;28;20616;-66
2021/11/20 06:49:32;;;;;;;6.43;1.43;;;10.60;99.90;;;;;;5052497;28;20206;-67
2021/11/20 06:51:59;;;;;;;7.83;2.57;;;10.60;99.90;;;;;;5053050;28;20217;-66
2021/11/20 06:54:26;;;;;;;6.07;1.87;;;10.60;99.90;;;;;;5051302;28;20241;-66
2021/11/20 06:57:03;;;;;;;3.13;1.30;;;10.60;99.90;;;;;;5049186;28;20276;-67
2021/11/20 07:02:31;;;;;;;9.50;2.13;;;10.70;99.90;;;;;;5027464;28;20218;-67
2021/11/20 07:04:58;;;;;;;5.67;1.47;;;10.90;99.90;;;;;;5046484;28;20225;-66
2021/11/20 07:07:27;;;;;;;7.17;1.80;;;11.00;99.90;;;;;;5039592;28;20293;-65
2021/11/20 07:09:54;;;;;;;5.63;1.73;;;11.10;99.90;;;;;;5047020;28;20206;-66
2021/11/20 07:12:21;;;;;;;10.23;2.23;;;11.20;99.90;;;;;;5049556;28;20253;-66
2021/11/20 07:14:48;;;;;;;5.50;1.80;;;11.30;99.90;;;;;;5042092;28;20294;-68
2021/11/20 07:17:16;;;;;;;10.67;2.40;;;11.40;99.90;;;;;;5035645;28;20289;-68
2021/11/20 07:19:44;;;;;;;5.23;1.33;;;11.40;99.90;;;;;;5054032;28;20661;-67
2021/11/20 07:22:11;;;;;;;4.73;1.90;;;11.50;99.90;;;;;;5052518;28;20673;-66
2021/11/20 07:24:39;;;;;;;8.30;2.27;;;11.60;99.90;;;;;;5054363;28;20237;-66
2021/11/20 07:27:06;;;;;;;8.20;1.73;;;11.70;99.90;;;;;;5052873;28;20305;-65
2021/11/20 07:29:33;;;;;;;7.47;1.63;;;11.80;99.90;;;;;;5040050;28;20282;-66
2021/11/20 07:32:00;;;;;;;7.87;1.90;;;11.80;99.90;;;;;;5041119;28;20683;-66
2021/11/20 07:34:27;;;;;;;6.37;1.60;;;11.90;99.90;;;;;;5039862;28;20244;-66
2021/11/20 07:36:57;;;;;;;6.43;1.70;;;12.00;99.90;;;;;;5053897;28;20244;-68
2021/11/20 07:39:24;;;;;;;9.90;1.90;;;12.10;99.90;;;;;;5053477;28;20555;-66
2021/11/20 07:41:51;;;;;;;5.90;1.80;;;12.10;99.90;;;;;;5039889;28;20650;-66
2021/11/20 07:44:18;;;;;;;10.27;1.97;;;12.20;99.90;;;;;;5036431;28;20248;-66
2021/11/20 07:46:45;;;;;;;7.13;1.70;;;12.30;99.90;;;;;;5053702;28;20293;-67
2021/11/20 07:49:13;;;;;;;4.37;1.63;;;12.40;99.90;;;;;;5040977;28;20230;-66
2021/11/20 07:51:40;;;;;;;7.40;2.20;;;12.30;99.90;;;;;;5039004;28;20237;-67
2021/11/20 07:54:08;;;;;;;6.37;1.87;;;12.40;99.90;;;;;;5033928;28;20246;-66
2021/11/20 07:56:41;;;;;;;9.13;1.57;;;12.40;99.90;;;;;;5036022;28;20313;-68
2021/11/20 07:59:08;;;;;;;4.87;2.00;;;12.50;99.90;;;;;;5046358;28;20206;-66
2021/11/20 08:01:35;;;;;;;5.67;1.67;;;12.60;99.90;;;;;;5046920;28;20213;-66
2021/11/20 08:04:02;;;;;;;4.53;1.30;;;12.70;99.90;;;;;;5033201;28;20256;-67
2021/11/20 08:06:30;;;;;;;5.57;1.50;;;12.70;99.90;;;;;;5034854;28;20198;-67
2021/11/20 08:09:02;;;;;;;7.43;1.83;;;12.70;99.90;;;;;;5034657;28;20218;-67
2021/11/20 08:11:31;;;;;;;9.80;1.57;;;12.80;99.90;;;;;;5034555;28;20674;-67
2021/11/20 08:13:58;;;;;;;5.57;2.23;;;12.90;99.90;;;;;;5040394;28;20275;-69
2021/11/20 08:16:25;;;;;;;5.83;1.57;;;13.10;99.90;;;;;;5043029;28;20210;-67
2021/11/20 08:18:52;;;;;;;8.10;2.03;;;13.20;99.90;;;;;;5034741;28;20239;-67
2021/11/20 08:21:19;;;;;;;6.83;2.10;;;13.40;99.90;;;;;;5047977;28;20229;-68
2021/11/20 08:23:46;;;;;;;6.47;1.77;;;13.50;99.90;;;;;;5038313;28;20210;-66
2021/11/20 08:26:14;;;;;;;6.10;1.80;;;13.60;99.90;;;;;;5034293;28;20246;-67
2021/11/20 08:28:42;;;;;;;5.50;1.63;;;13.80;99.90;;;;;;5034345;28;20221;-67
2021/11/20 08:31:09;;;;;;;6.83;1.70;;;14.00;99.90;;;;;;5054252;28;20277;-68
2021/11/20 08:33:37;;;;;;;9.80;2.33;;;14.40;99.90;;;;;;5041380;28;20301;-66
2021/11/20 08:36:06;;;;;;;5.87;1.90;;;14.90;99.90;;;;;;5034640;28;20309;-67
2021/11/20 08:38:34;;;;;;;5.03;2.33;;;15.70;99.90;;;;;;5033204;28;20624;-66
2021/11/20 08:41:01;;;;;;;6.97;1.67;;;17.00;99.90;;;;;;5045972;28;20266;-65
2021/11/20 08:43:29;;;;;;;6.10;2.30;;;19.20;99.90;;;;;;5043713;28;20214;-65
2021/11/20 08:46:00;;;;;;;6.25;1.75;;;21.20;93.00;;;;;;5037650;28;20210;-66
2021/11/20 08:48:27;;;;;;;5.90;2.17;;;22.20;80.30;;;;;;5042707;28;20210;-66
2021/11/20 08:50:58;;;;;;;7.45;2.08;;;22.70;71.40;;;;;;5040991;28;20286;-67
2021/11/20 08:53:25;;;;;;;7.45;2.00;;;22.80;70.80;;;;;;5034054;28;20236;-66
2021/11/20 08:55:54;;;;;;;4.68;1.85;;;23.50;68.50;;;;;;5033753;28;20243;-65
2021/11/20 08:58:21;;;;;;;9.32;2.60;;;24.60;62.50;;;;;;5033456;28;20236;-66
2021/11/20 09:00:52;;;;;;;6.85;2.67;;;25.70;58.30;;;;;;5033815;28;20645;-66
2021/11/20 09:03:25;;;;;;;5.53;2.00;;;25.70;55.60;;;;;;5032541;28;20683;-66
2021/11/20 09:05:56;;;;;;;4.85;1.98;;;25.50;55.70;;;;;;5040093;28;20260;-66
2021/11/20 09:08:30;;;;;;;5.38;1.75;;;25.20;54.80;;;;;;5033362;28;20236;-66
2021/11/20 09:11:01;;;;;;;5.47;2.58;;;24.80;54.30;;;;;;5044051;28;20213;-66
2021/11/20 09:13:32;;;;;;;7.78;2.50;;;24.70;53.90;;;;;;5031328;28;20827;-65
2021/11/20 09:16:02;;;;;;;6.15;2.15;;;23.80;53.80;;;;;;5032111;28;20256;-66
2021/11/20 09:18:32;;;;;;;8.88;2.40;;;22.60;53.80;;;;;;5031190;28;20317;-66
2021/11/20 09:20:59;;;;;;;6.40;2.08;;;22.10;56.50;;;;;;5039335;28;20567;-66
2021/11/20 09:23:26;;;;;;;4.22;1.90;;;22.10;57.90;;;;;;5044000;28;20246;-66
2021/11/20 09:25:55;;;;;;;6.10;1.95;;;22.10;56.90;;;;;;5037168;28;20301;-66
2021/11/20 09:28:23;;;;;;;6.93;2.35;;;22.10;57.00;;;;;;5049296;28;20296;-66
2021/11/20 09:30:53;;;;;;;6.63;2.22;;;22.30;59.10;;;;;;5033438;28;20248;-65
2021/11/20 09:33:21;;;;;;;6.07;2.10;;;22.80;58.90;;;;;;5031903;28;20667;-66
2021/11/20 09:35:50;;;;;;;4.55;1.90;;;22.90;55.10;;;;;;5032200;28;20294;-66
2021/11/20 09:38:19;;;;;;;5.15;2.15;;;22.50;55.70;;;;;;5031557;28;20594;-66
2021/11/20 09:40:50;;;;;;;7.35;2.25;;;21.60;56.00;;;;;;5031243;28;20545;-65
2021/11/20 09:43:23;;;;;;;7.50;2.10;;;20.70;56.60;;;;;;5040053;28;20205;-66
2021/11/20 09:45:56;;;;;;;7.70;3.13;;;19.80;58.80;;;;;;5044193;28;20241;-65
2021/11/20 09:48:28;;;;;;;6.38;2.70;;;19.00;60.10;;;;;;5035447;28;20201;-66
2021/11/20 09:51:01;;;;;;;6.85;2.72;;;18.50;62.20;;;;;;5039469;28;20313;-66
2021/11/20 09:53:29;;;;;;;4.35;1.92;;;18.30;65.10;;;;;;5035356;28;20222;-66
2021/11/20 09:55:59;;;;;;;6.13;2.90;;;18.90;67.40;;;;;;5050745;28;20239;-66
2021/11/20 09:58:28;;;;;;;4.83;1.67;;;19.40;65.80;;;;;;5045871;28;20234;-66
2021/11/20 10:01:24;;;;;;;4.93;2.22;;;19.70;63.80;;;;;;5034340;28;20246;-68
2021/11/20 10:04:06;;;;;;;10.32;2.55;;;20.30;62.90;;;;;;5031502;28;20679;-69
2021/11/20 10:06:36;;;;;;;6.10;2.15;;;20.90;63.30;;;;;;5035986;28;20233;-68
2021/11/20 10:09:26;;;;;;;7.15;2.38;;;21.30;59.90;;;;;;5037753;28;20297;-68
2021/11/20 10:11:59;;;;;;;4.95;2.17;;;20.90;58.70;;;;;;5031692;28;20315;-67
2021/11/20 10:14:39;;;;;;;7.35;2.60;;;20.80;58.80;;;;;;5041668;28;20206;-69
2021/11/20 10:17:19;;;;;;;4.68;1.85;;;20.90;62.20;;;;;;5031457;28;20648;-68
2021/11/20 10:19:59;;;;;;;6.47;2.42;;;21.90;58.00;;;;;;5042209;28;20210;-67
2021/11/20 10:22:33;;;;;;;6.28;2.40;;;22.80;57.70;;;;;;5045988;28;20744;-68
2021/11/20 10:25:16;;;;;;;4.55;2.00;;;22.90;58.60;;;;;;5031171;28;20256;-70
2021/11/20 10:28:06;;;;;;;5.75;2.10;;;22.60;55.20;;;;;;5036680;28;20655;-69
2021/11/20 10:30:39;;;;;;;4.40;1.75;;;22.30;56.70;;;;;;5044185;28;20269;-67
2021/11/20 10:33:12;;;;;;;5.70;2.08;;;21.40;55.40;;;;;;5031145;28;20258;-67
2021/11/20 10:35:43;;;;;;;5.53;2.15;;;20.40;56.50;;;;;;5048782;28;20274;-69
2021/11/20 10:38:23;;;;;;;7.55;2.33;;;20.50;60.40;;;;;;5034173;28;20305;-68
2021/11/20 10:40:56;;;;;;;7.07;2.30;;;20.30;59.40;;;;;;5039251;28;20251;-68
2021/11/20 10:43:27;;;;;;;6.45;2.15;;;20.20;59.60;;;;;;5044974;28;20201;-68
2021/11/20 10:46:00;;;;;;;4.93;1.75;;;21.10;64.70;;;;;;5036291;28;20297;-69
2021/11/20 10:48:37;;;;;;;6.45;2.15;;;23.30;58.00;;;;;;5044863;28;20198;-69
2021/11/20 10:51:33;;;;;;;5.88;2.38;;;25.30;52.70;;;;;;5040759;28;20206;-68
2021/11/20 10:54:51;;;;;;;6.32;2.17;;;25.80;53.20;;;;;;5041843;28;20253;-69
2021/11/20 10:57:35;;;;;;;4.53;1.83;;;25.10;49.90;;;;;;5043803;28;20276;-67
2021/11/20 11:00:19;;;;;;;3.80;1.85;;;24.90;49.70;;;;;;5038149;28;20690;-68
2021/11/20 11:03:21;;;;;;;5.68;2.08;;;23.90;49.50;;;;;;5048155;28;20198;-68
2021/11/20 11:06:34;;;;;;;5.68;2.20;;;23.30;52.60;;;;;;5012339;28;20237;-67
2021/11/20 11:09:10;;;;;;;5.95;1.92;;;23.70;52.30;;;;;;5039443;28;20206;-67
2021/11/20 11:11:40;;;;;;;6.97;1.92;;;24.50;53.60;;;;;;5043360;28;20380;-68
2021/11/20 11:14:28;;;;;;;6.35;2.30;;;25.90;49.30;;;;;;5047778;28;20252;-69
2021/11/20 11:17:00;;;;;;;7.60;2.50;;;26.50;48.20;;;;;;5033986;28;20245;-68
2021/11/20 11:19:37;;;;;;;6.40;2.40;;;25.90;48.30;;;;;;5036365;28;20202;-68
2021/11/20 11:22:13;;;;;;;3.47;1.85;;;25.60;48.10;;;;;;5036748;28;20209;-67
2021/11/20 11:25:15;;;;;;;5.30;2.15;;;24.70;49.10;;;;;;5042801;28;20659;-68
2021/11/20 11:28:07;;;;;;;4.55;1.95;;;25.60;51.60;;;;;;4982086;28;20679;-68
2021/11/20 11:30:39;;;;;;;4.82;1.85;;;27.80;48.00;;;;;;4970896;28;20298;-68
2021/11/20 11:33:07;;;;;;;4.80;2.20;;;30.10;44.10;;;;;;5033065;28;20225;-67
2021/11/20 11:35:43;;;;;;;5.63;1.70;;;31.20;40.80;;;;;;5049601;28;20242;-69
2021/11/20 11:38:43;;;;;;;5.60;2.28;;;31.00;40.60;;;;;;5055757;28;20198;-68
2021/11/20 11:41:14;;;;;;;4.70;1.77;;;30.10;39.30;;;;;;5042558;28;20284;-66
2021/11/20 11:43:45;;;;;;;4.63;1.90;;;28.10;40.50;;;;;;5042650;28;20198;-69
2021/11/20 11:46:45;;;;;;;5.70;1.95;;;26.00;42.90;;;;;;5045428;28;20285;-68
2021/11/20 11:49:50;;;;;;;5.30;1.75;;;24.00;46.20;;;;;;5050855;28;20622;-67
2021/11/20 11:52:46;;;;;;;3.60;1.58;;;22.30;48.60;;;;;;4993157;28;20206;-66
2021/11/20 11:55:32;;;;;;;4.32;2.08;;;20.80;50.60;;;;;;5043951;28;20635;-66
2021/11/20 11:58:09;;;;;;;7.43;2.10;;;19.60;52.50;;;;;;5023705;28;20281;-66
2021/11/20 12:00:39;;;;;;;4.43;1.60;;;18.50;54.90;;;;;;5042528;28;20306;-66
2021/11/20 12:03:28;;;;;;;5.80;2.10;;;17.70;56.70;;;;;;5053218;28;20270;-67
2021/11/20 12:06:10;;;;;;;4.87;1.77;;;17.10;58.50;;;;;;5040026;28;20198;-66
2021/11/20 12:08:40;;;;;;;3.63;2.40;;;16.50;60.00;;;;;;5054777;28;20700;-67
2021/11/20 12:11:11;;;;;;;4.80;1.93;;;16.00;61.40;;;;;;5053792;28;20237;-68
2021/11/20 12:13:40;;;;;;;5.43;2.20;;;15.60;62.40;;;;;;5052988;28;20308;-67
2021/11/20 12:16:31;;;;;;;4.90;2.03;;;15.20;63.80;;;;;;5044348;28;20297;-67
2021/11/20 12:19:05;;;;;;;3.70;1.53;;;14.80;65.10;;;;;;5052545;28;20228;-68
2021/11/20 12:21:47;;;;;;;4.33;1.40;;;14.50;66.20;;;;;;5053686;28;20214;-67
2021/11/20 12:24:30;;;;;;;2.77;1.53;;;14.20;67.40;;;;;;5039285;28;20212;-67
2021/11/20 12:27:01;;;;;;;4.23;1.63;;;14.10;68.70;;;;;;5050164;28;20198;-68
2021/11/20 12:29:51;;;;;;;3.47;1.57;;;14.00;69.30;;;;;;5053750;28;20244;-66
2021/11/20 12:32:54;;;;;;;2.57;1.17;;;14.00;69.70;;;;;;5052581;28;20297;-66
2021/11/20 12:35:38;;;;;;;5.70;1.90;;;14.00;70.10;;;;;;5019099;28;20213;-66
2021/11/20 12:38:14;;;;;;;5.83;1.73;;;14.00;70.70;;;;;;5043790;28;20233;-66
2021/11/20 12:41:01;;;;;;;4.23;1.43;;;14.00;71.00;;;;;;5040120;28;20245;-64
2021/11/20 12:43:49;;;;;;;2.90;1.80;;;13.90;71.40;;;;;;5053651;28;20694;-65
2021/11/20 12:46:43;;;;;;;5.47;1.60;;;14.20;72.40;;;;;;5052334;28;20209;-69
2021/11/20 12:49:29;;;;;;;2.63;1.40;;;13.90;72.60;;;;;;5035146;28;20214;-68
2021/11/20 12:52:02;;;;;;;4.73;1.83;;;14.00;72.80;;;;;;5051948;28;20244;-69
2021/11/20 12:54:45;;;;;;;6.37;1.77;;;13.90;72.90;;;;;;5041057;28;20249;-67
2021/11/20 12:57:20;;;;;;;4.93;1.53;;;13.90;73.40;;;;;;5033682;28;20288;-68
2021/11/20 12:59:51;;;;;;;1.97;1.00;;;13.90;74.20;;;;;;5033307;28;20288;-68
2021/11/20 13:02:43;;;;;;;1.97;1.10;;;13.90;74.40;;;;;;5046458;28;20643;-66
2021/11/20 13:05:26;;;;;;;3.53;1.10;;;13.90;74.70;;;;;;5046857;28;20293;-68
2021/11/20 13:07:57;;;;;;;4.37;1.97;;;13.80;75.10;;;;;;5031880;28;20760;-68
2021/11/20 13:10:41;;;;;;;6.07;1.80;;;13.60;75.80;;;;;;5032038;28;20229;-68
2021/11/20 13:13:16;;;;;;;2.93;1.37;;;13.50;76.80;;;;;;5031457;28;20296;-69